Estación Meteorológica Peña el Pijo (Robertgarden) [ 02/03/23 03:38:11 CET ]

Fecha Hora Presion(HPa) Temp (°C) Humedad % Rocio (°C) Viento ( m/s) Direccion Lluvia 1Hora(mm) Lluvia 24H(mm) LLuvia Total(mm)
2012-Jul-02 01:01:11 1014.300 12.6 45 0.9         167.83
2012-Jul-02 02:01:13 1014.300 11.6 48 0.9         167.83
2012-Jul-02 03:01:50 1013.800 10.3 52 0.9         167.83
2012-Jul-02 04:01:46 1013.700 9.8 54 0.9         167.83
2012-Jul-02 05:01:44 1013.500 9.3 56 0.9         167.83
2012-Jul-02 06:01:52 1013.400 8.5 59 0.9         167.83
2012-Jul-02 07:01:11 1013.600 8.8 58 1.0         167.83
2012-Jul-02 08:01:13 1013.800 10.3 61 3.1         167.83
2012-Jul-02 09:01:17 1013.800 17.3 49 6.5         167.83
2012-Jul-02 10:01:11 1013.900 22.9 33 5.7         167.83
2012-Jul-02 11:01:14 1013.600 26.6 23 3.6         167.83
2012-Jul-02 12:01:24 1013.400 29.1 22 5.1         167.83
2012-Jul-02 13:01:13 1013.300 30.7 19 4.3 0.7 NNE     167.83
2012-Jul-02 14:01:17 1013.100 29.5 19 3.2 1.5 E     167.83
2012-Jul-02 15:01:12 1012.500 31.1 20 5.6         167.83
2012-Jul-02 16:01:12 1012.100 32.1 19 5.4         167.83
2012-Jul-02 17:01:15 1011.500 32.4 19 5.7 1.1 NE     167.83
2012-Jul-02 18:01:15 1011.500 31.3 22 6.9 0.3 ENE     167.83
2012-Jul-02 19:01:11 1011.600 30.0 29 10.0         167.83
2012-Jul-02 20:01:16 1011.600 27.8 34 10.4 1.3 SSW     167.83
2012-Jul-02 21:01:11 1012.300 24.4 41 10.3         167.83
2012-Jul-02 22:01:12 1013.000 22.8 45 10.2         167.83
2012-Jul-02 23:01:13 1013.700 21.5 50 10.7         167.83

Temperatura Máxima:32°    Temperatura Mínima:
Presión Máxima:1014.300 Hpa    Presión Mínima:1011.500 Hpa


Volver